sensor_id;sensor_type;location;lat;lon;timestamp;P1;durP1;ratioP1;P2;durP2;ratioP2
73276;SDS011;61501;43.316;5.372;2022-09-30T00:00:14;1.65;;;0.90;;
73276;SDS011;61501;43.316;5.372;2022-09-30T00:02:41;2.25;;;1.35;;
73276;SDS011;61501;43.316;5.372;2022-09-30T00:05:07;2.75;;;0.95;;
73276;SDS011;61501;43.316;5.372;2022-09-30T00:07:33;1.95;;;1.10;;
73276;SDS011;61501;43.316;5.372;2022-09-30T00:09:59;2.20;;;1.02;;
73276;SDS011;61501;43.316;5.372;2022-09-30T00:12:25;1.45;;;0.90;;
73276;SDS011;61501;43.316;5.372;2022-09-30T00:14:51;1.13;;;0.70;;
73276;SDS011;61501;43.316;5.372;2022-09-30T00:17:17;1.52;;;1.00;;
73276;SDS011;61501;43.316;5.372;2022-09-30T00:19:44;1.55;;;0.88;;
73276;SDS011;61501;43.316;5.372;2022-09-30T00:22:11;4.05;;;0.82;;
73276;SDS011;61501;43.316;5.372;2022-09-30T00:24:37;1.10;;;0.90;;
73276;SDS011;61501;43.316;5.372;2022-09-30T00:27:03;1.05;;;0.70;;
73276;SDS011;61501;43.316;5.372;2022-09-30T00:29:29;1.27;;;0.95;;
73276;SDS011;61501;43.316;5.372;2022-09-30T00:31:55;2.05;;;1.10;;
73276;SDS011;61501;43.316;5.372;2022-09-30T00:34:21;1.65;;;0.93;;
73276;SDS011;61501;43.316;5.372;2022-09-30T00:36:49;3.10;;;1.00;;
73276;SDS011;61501;43.316;5.372;2022-09-30T00:39:17;2.08;;;1.00;;
73276;SDS011;61501;43.316;5.372;2022-09-30T00:41:44;2.40;;;1.10;;
73276;SDS011;61501;43.316;5.372;2022-09-30T00:46:55;2.72;;;1.02;;
73276;SDS011;61501;43.316;5.372;2022-09-30T00:49:23;2.63;;;1.08;;
73276;SDS011;61501;43.316;5.372;2022-09-30T00:51:51;1.52;;;1.00;;
73276;SDS011;61501;43.316;5.372;2022-09-30T00:54:19;3.00;;;1.13;;
73276;SDS011;61501;43.316;5.372;2022-09-30T00:56:48;2.45;;;1.17;;
73276;SDS011;61501;43.316;5.372;2022-09-30T00:59:16;2.03;;;1.10;;
73276;SDS011;61501;43.316;5.372;2022-09-30T01:01:44;1.52;;;1.08;;
73276;SDS011;61501;43.316;5.372;2022-09-30T01:06:36;1.65;;;1.15;;
73276;SDS011;61501;43.316;5.372;2022-09-30T01:09:02;2.25;;;1.00;;
73276;SDS011;61501;43.316;5.372;2022-09-30T01:11:28;2.65;;;1.33;;
73276;SDS011;61501;43.316;5.372;2022-09-30T01:13:55;1.45;;;1.10;;
73276;SDS011;61501;43.316;5.372;2022-09-30T01:27:19;5.05;;;3.50;;
73276;SDS011;61501;43.316;5.372;2022-09-30T01:37:57;4.15;;;1.88;;
73276;SDS011;61501;43.316;5.372;2022-09-30T01:40:29;2.47;;;1.40;;
73276;SDS011;61501;43.316;5.372;2022-09-30T01:43:04;3.33;;;1.60;;
73276;SDS011;61501;43.316;5.372;2022-09-30T01:45:38;1.73;;;1.10;;
73276;SDS011;61501;43.316;5.372;2022-09-30T01:50:45;2.53;;;1.00;;
73276;SDS011;61501;43.316;5.372;2022-09-30T01:55:45;2.70;;;0.98;;
73276;SDS011;61501;43.316;5.372;2022-09-30T01:58:37;2.08;;;1.30;;
73276;SDS011;61501;43.316;5.372;2022-09-30T02:01:00;1.20;;;0.93;;
73276;SDS011;61501;43.316;5.372;2022-09-30T02:03:32;1.95;;;1.02;;
73276;SDS011;61501;43.316;5.372;2022-09-30T02:06:01;1.38;;;1.00;;
73276;SDS011;61501;43.316;5.372;2022-09-30T02:08:50;1.20;;;0.80;;
73276;SDS011;61501;43.316;5.372;2022-09-30T02:11:25;3.47;;;1.10;;
73276;SDS011;61501;43.316;5.372;2022-09-30T02:13:57;1.42;;;0.85;;
73276;SDS011;61501;43.316;5.372;2022-09-30T02:16:28;1.48;;;0.80;;
73276;SDS011;61501;43.316;5.372;2022-09-30T02:18:57;1.67;;;0.85;;
73276;SDS011;61501;43.316;5.372;2022-09-30T02:21:29;1.35;;;0.80;;
73276;SDS011;61501;43.316;5.372;2022-09-30T02:23:57;2.75;;;0.88;;
73276;SDS011;61501;43.316;5.372;2022-09-30T02:26:28;2.30;;;1.00;;
73276;SDS011;61501;43.316;5.372;2022-09-30T02:28:56;3.20;;;1.00;;
73276;SDS011;61501;43.316;5.372;2022-09-30T02:33:59;2.40;;;0.80;;
73276;SDS011;61501;43.316;5.372;2022-09-30T02:36:38;1.00;;;0.90;;
73276;SDS011;61501;43.316;5.372;2022-09-30T02:39:25;1.92;;;0.80;;
73276;SDS011;61501;43.316;5.372;2022-09-30T02:41:54;1.77;;;0.90;;
73276;SDS011;61501;43.316;5.372;2022-09-30T02:44:22;1.23;;;0.90;;
73276;SDS011;61501;43.316;5.372;2022-09-30T02:49:38;2.05;;;0.98;;
73276;SDS011;61501;43.316;5.372;2022-09-30T02:59:50;1.63;;;0.73;;
73276;SDS011;61501;43.316;5.372;2022-09-30T03:02:17;3.38;;;1.00;;
73276;SDS011;61501;43.316;5.372;2022-09-30T03:04:44;1.90;;;0.90;;
73276;SDS011;61501;43.316;5.372;2022-09-30T03:07:10;1.65;;;0.82;;
73276;SDS011;61501;43.316;5.372;2022-09-30T03:09:36;1.42;;;0.90;;
73276;SDS011;61501;43.316;5.372;2022-09-30T03:12:10;1.42;;;1.00;;
73276;SDS011;61501;43.316;5.372;2022-09-30T03:14:54;4.53;;;1.38;;
73276;SDS011;61501;43.316;5.372;2022-09-30T03:17:28;1.88;;;0.93;;
73276;SDS011;61501;43.316;5.372;2022-09-30T03:22:49;1.35;;;0.88;;
73276;SDS011;61501;43.316;5.372;2022-09-30T03:30:37;3.03;;;0.88;;
73276;SDS011;61501;43.316;5.372;2022-09-30T03:33:07;1.20;;;0.82;;
73276;SDS011;61501;43.316;5.372;2022-09-30T03:46:08;2.35;;;1.05;;
73276;SDS011;61501;43.316;5.372;2022-09-30T03:48:37;3.25;;;1.10;;
73276;SDS011;61501;43.316;5.372;2022-09-30T03:51:04;1.48;;;1.00;;
73276;SDS011;61501;43.316;5.372;2022-09-30T03:53:30;4.55;;;1.17;;
73276;SDS011;61501;43.316;5.372;2022-09-30T03:56:02;2.65;;;1.13;;
73276;SDS011;61501;43.316;5.372;2022-09-30T03:58:28;2.35;;;1.10;;
73276;SDS011;61501;43.316;5.372;2022-09-30T04:00:53;4.32;;;1.17;;
73276;SDS011;61501;43.316;5.372;2022-09-30T04:03:21;5.40;;;1.33;;
73276;SDS011;61501;43.316;5.372;2022-09-30T04:05:47;2.38;;;1.10;;
73276;SDS011;61501;43.316;5.372;2022-09-30T04:08:13;2.58;;;1.10;;
73276;SDS011;61501;43.316;5.372;2022-09-30T04:10:40;3.90;;;1.23;;
73276;SDS011;61501;43.316;5.372;2022-09-30T04:13:06;2.33;;;1.38;;
73276;SDS011;61501;43.316;5.372;2022-09-30T04:15:33;5.80;;;1.90;;
73276;SDS011;61501;43.316;5.372;2022-09-30T04:17:59;5.60;;;1.25;;
73276;SDS011;61501;43.316;5.372;2022-09-30T04:20:25;1.65;;;1.10;;
73276;SDS011;61501;43.316;5.372;2022-09-30T04:22:51;6.97;;;1.23;;
73276;SDS011;61501;43.316;5.372;2022-09-30T04:25:17;2.45;;;1.30;;
73276;SDS011;61501;43.316;5.372;2022-09-30T04:27:43;3.22;;;1.13;;
73276;SDS011;61501;43.316;5.372;2022-09-30T04:30:09;2.60;;;1.13;;
73276;SDS011;61501;43.316;5.372;2022-09-30T04:32:35;4.47;;;1.42;;
73276;SDS011;61501;43.316;5.372;2022-09-30T04:35:02;2.45;;;1.13;;
73276;SDS011;61501;43.316;5.372;2022-09-30T04:37:28;2.40;;;1.50;;
73276;SDS011;61501;43.316;5.372;2022-09-30T04:39:54;3.15;;;1.15;;
73276;SDS011;61501;43.316;5.372;2022-09-30T04:42:20;2.83;;;1.10;;
73276;SDS011;61501;43.316;5.372;2022-09-30T04:44:46;2.85;;;1.20;;
73276;SDS011;61501;43.316;5.372;2022-09-30T04:47:12;10.52;;;1.55;;
73276;SDS011;61501;43.316;5.372;2022-09-30T04:49:39;3.22;;;1.40;;
73276;SDS011;61501;43.316;5.372;2022-09-30T04:52:05;4.38;;;1.50;;
73276;SDS011;61501;43.316;5.372;2022-09-30T04:54:31;3.45;;;1.30;;
73276;SDS011;61501;43.316;5.372;2022-09-30T04:56:57;2.90;;;1.40;;
73276;SDS011;61501;43.316;5.372;2022-09-30T04:59:23;3.53;;;1.50;;
73276;SDS011;61501;43.316;5.372;2022-09-30T05:01:49;2.63;;;1.38;;
73276;SDS011;61501;43.316;5.372;2022-09-30T05:04:15;6.55;;;1.75;;
73276;SDS011;61501;43.316;5.372;2022-09-30T05:06:41;2.10;;;1.10;;
73276;SDS011;61501;43.316;5.372;2022-09-30T05:09:07;4.75;;;1.40;;
73276;SDS011;61501;43.316;5.372;2022-09-30T05:11:33;3.83;;;1.48;;
73276;SDS011;61501;43.316;5.372;2022-09-30T05:14:05;2.40;;;1.15;;
73276;SDS011;61501;43.316;5.372;2022-09-30T05:16:32;4.80;;;1.30;;
73276;SDS011;61501;43.316;5.372;2022-09-30T05:18:58;4.07;;;1.30;;
73276;SDS011;61501;43.316;5.372;2022-09-30T05:21:24;3.88;;;1.70;;
73276;SDS011;61501;43.316;5.372;2022-09-30T05:23:52;5.43;;;1.60;;
73276;SDS011;61501;43.316;5.372;2022-09-30T05:26:18;4.38;;;1.50;;
73276;SDS011;61501;43.316;5.372;2022-09-30T05:28:44;9.23;;;1.55;;
73276;SDS011;61501;43.316;5.372;2022-09-30T05:31:10;3.63;;;1.48;;
73276;SDS011;61501;43.316;5.372;2022-09-30T05:33:37;3.08;;;1.40;;
73276;SDS011;61501;43.316;5.372;2022-09-30T05:36:05;3.70;;;1.50;;
73276;SDS011;61501;43.316;5.372;2022-09-30T05:38:32;4.03;;;1.27;;
73276;SDS011;61501;43.316;5.372;2022-09-30T05:41:04;4.10;;;1.60;;
73276;SDS011;61501;43.316;5.372;2022-09-30T05:43:31;8.15;;;2.20;;
73276;SDS011;61501;43.316;5.372;2022-09-30T05:45:57;4.20;;;1.73;;
73276;SDS011;61501;43.316;5.372;2022-09-30T05:48:23;5.35;;;1.40;;
73276;SDS011;61501;43.316;5.372;2022-09-30T05:50:53;4.85;;;1.58;;
73276;SDS011;61501;43.316;5.372;2022-09-30T05:53:20;3.92;;;1.27;;
73276;SDS011;61501;43.316;5.372;2022-09-30T05:55:46;5.05;;;1.60;;
73276;SDS011;61501;43.316;5.372;2022-09-30T05:58:13;3.45;;;1.65;;
73276;SDS011;61501;43.316;5.372;2022-09-30T06:00:40;9.13;;;1.80;;
73276;SDS011;61501;43.316;5.372;2022-09-30T06:03:06;4.55;;;1.60;;
73276;SDS011;61501;43.316;5.372;2022-09-30T06:05:32;6.63;;;1.73;;
73276;SDS011;61501;43.316;5.372;2022-09-30T06:07:58;5.28;;;1.60;;
73276;SDS011;61501;43.316;5.372;2022-09-30T06:10:24;9.68;;;1.98;;
73276;SDS011;61501;43.316;5.372;2022-09-30T06:12:50;3.38;;;1.60;;
73276;SDS011;61501;43.316;5.372;2022-09-30T06:15:16;6.55;;;1.95;;
73276;SDS011;61501;43.316;5.372;2022-09-30T06:17:42;6.60;;;1.70;;
73276;SDS011;61501;43.316;5.372;2022-09-30T06:20:09;3.10;;;1.33;;
73276;SDS011;61501;43.316;5.372;2022-09-30T06:22:35;4.30;;;1.48;;
73276;SDS011;61501;43.316;5.372;2022-09-30T06:25:02;5.13;;;1.67;;
73276;SDS011;61501;43.316;5.372;2022-09-30T06:27:28;6.90;;;1.85;;
73276;SDS011;61501;43.316;5.372;2022-09-30T06:29:54;6.10;;;2.03;;
73276;SDS011;61501;43.316;5.372;2022-09-30T06:32:21;5.13;;;1.60;;
73276;SDS011;61501;43.316;5.372;2022-09-30T06:34:48;7.35;;;2.35;;
73276;SDS011;61501;43.316;5.372;2022-09-30T06:37:14;4.57;;;1.73;;
73276;SDS011;61501;43.316;5.372;2022-09-30T06:39:42;10.13;;;2.00;;
73276;SDS011;61501;43.316;5.372;2022-09-30T06:42:08;7.78;;;1.77;;
73276;SDS011;61501;43.316;5.372;2022-09-30T06:44:36;7.10;;;2.40;;
73276;SDS011;61501;43.316;5.372;2022-09-30T06:47:02;6.00;;;1.85;;
73276;SDS011;61501;43.316;5.372;2022-09-30T06:49:28;4.80;;;2.10;;
73276;SDS011;61501;43.316;5.372;2022-09-30T06:51:54;5.00;;;1.83;;
73276;SDS011;61501;43.316;5.372;2022-09-30T06:54:20;7.78;;;2.00;;
73276;SDS011;61501;43.316;5.372;2022-09-30T06:56:46;8.85;;;2.17;;
73276;SDS011;61501;43.316;5.372;2022-09-30T06:59:12;6.10;;;1.65;;
73276;SDS011;61501;43.316;5.372;2022-09-30T07:01:42;10.90;;;2.53;;
73276;SDS011;61501;43.316;5.372;2022-09-30T07:04:09;9.48;;;1.60;;
73276;SDS011;61501;43.316;5.372;2022-09-30T07:06:35;6.15;;;1.42;;
73276;SDS011;61501;43.316;5.372;2022-09-30T07:09:03;7.13;;;1.63;;
73276;SDS011;61501;43.316;5.372;2022-09-30T07:11:29;2.78;;;1.80;;
73276;SDS011;61501;43.316;5.372;2022-09-30T07:13:55;3.95;;;1.90;;
73276;SDS011;61501;43.316;5.372;2022-09-30T07:16:21;4.60;;;1.70;;
73276;SDS011;61501;43.316;5.372;2022-09-30T07:18:49;4.80;;;1.60;;
73276;SDS011;61501;43.316;5.372;2022-09-30T07:21:16;5.80;;;1.70;;
73276;SDS011;61501;43.316;5.372;2022-09-30T07:23:42;4.60;;;1.30;;
73276;SDS011;61501;43.316;5.372;2022-09-30T07:26:12;3.30;;;1.52;;
73276;SDS011;61501;43.316;5.372;2022-09-30T07:28:39;6.85;;;2.17;;
73276;SDS011;61501;43.316;5.372;2022-09-30T07:31:06;4.95;;;1.60;;
73276;SDS011;61501;43.316;5.372;2022-09-30T07:33:33;4.43;;;1.40;;
73276;SDS011;61501;43.316;5.372;2022-09-30T07:35:59;3.92;;;1.30;;
73276;SDS011;61501;43.316;5.372;2022-09-30T07:38:27;8.43;;;1.90;;
73276;SDS011;61501;43.316;5.372;2022-09-30T07:40:58;7.43;;;2.25;;
73276;SDS011;61501;43.316;5.372;2022-09-30T07:43:25;8.98;;;2.97;;
73276;SDS011;61501;43.316;5.372;2022-09-30T07:45:52;6.68;;;2.00;;
73276;SDS011;61501;43.316;5.372;2022-09-30T07:48:20;11.70;;;2.47;;
73276;SDS011;61501;43.316;5.372;2022-09-30T07:51:32;4.03;;;1.92;;
73276;SDS011;61501;43.316;5.372;2022-09-30T07:53:59;7.15;;;1.65;;
73276;SDS011;61501;43.316;5.372;2022-09-30T07:56:26;8.80;;;2.58;;
73276;SDS011;61501;43.316;5.372;2022-09-30T07:58:53;6.30;;;1.95;;
73276;SDS011;61501;43.316;5.372;2022-09-30T08:01:19;8.50;;;1.70;;
73276;SDS011;61501;43.316;5.372;2022-09-30T08:03:45;6.65;;;1.85;;
73276;SDS011;61501;43.316;5.372;2022-09-30T08:08:37;3.50;;;1.30;;
73276;SDS011;61501;43.316;5.372;2022-09-30T08:11:04;5.22;;;1.48;;
73276;SDS011;61501;43.316;5.372;2022-09-30T08:13:30;8.45;;;2.00;;
73276;SDS011;61501;43.316;5.372;2022-09-30T08:15:56;4.85;;;1.60;;
73276;SDS011;61501;43.316;5.372;2022-09-30T08:18:22;4.28;;;1.60;;
73276;SDS011;61501;43.316;5.372;2022-09-30T08:20:48;5.20;;;1.65;;
73276;SDS011;61501;43.316;5.372;2022-09-30T08:23:14;8.02;;;1.92;;
73276;SDS011;61501;43.316;5.372;2022-09-30T08:25:40;7.00;;;1.60;;
73276;SDS011;61501;43.316;5.372;2022-09-30T08:28:06;10.90;;;1.88;;
73276;SDS011;61501;43.316;5.372;2022-09-30T08:30:36;4.03;;;1.73;;
73276;SDS011;61501;43.316;5.372;2022-09-30T08:33:03;6.05;;;1.60;;
73276;SDS011;61501;43.316;5.372;2022-09-30T08:35:29;4.65;;;2.00;;
73276;SDS011;61501;43.316;5.372;2022-09-30T08:37:55;5.82;;;1.55;;
73276;SDS011;61501;43.316;5.372;2022-09-30T08:40:30;5.35;;;1.90;;
73276;SDS011;61501;43.316;5.372;2022-09-30T08:50:55;4.55;;;1.38;;
73276;SDS011;61501;43.316;5.372;2022-09-30T08:53:29;4.78;;;1.30;;
73276;SDS011;61501;43.316;5.372;2022-09-30T08:55:56;5.53;;;1.98;;
73276;SDS011;61501;43.316;5.372;2022-09-30T08:58:30;4.82;;;1.65;;
73276;SDS011;61501;43.316;5.372;2022-09-30T09:00:58;5.30;;;1.50;;
73276;SDS011;61501;43.316;5.372;2022-09-30T09:03:27;4.30;;;1.50;;
73276;SDS011;61501;43.316;5.372;2022-09-30T09:11:02;6.50;;;1.70;;
73276;SDS011;61501;43.316;5.372;2022-09-30T09:23:44;4.95;;;1.67;;
73276;SDS011;61501;43.316;5.372;2022-09-30T09:26:11;6.63;;;1.85;;
73276;SDS011;61501;43.316;5.372;2022-09-30T09:28:40;5.82;;;1.77;;
73276;SDS011;61501;43.316;5.372;2022-09-30T09:31:10;4.53;;;1.75;;
73276;SDS011;61501;43.316;5.372;2022-09-30T09:33:38;3.15;;;1.55;;
73276;SDS011;61501;43.316;5.372;2022-09-30T09:36:17;5.72;;;1.60;;
73276;SDS011;61501;43.316;5.372;2022-09-30T09:48:45;6.68;;;1.50;;
73276;SDS011;61501;43.316;5.372;2022-09-30T09:51:13;2.72;;;1.10;;
73276;SDS011;61501;43.316;5.372;2022-09-30T09:54:13;4.25;;;1.27;;
73276;SDS011;61501;43.316;5.372;2022-09-30T09:56:33;1.45;;;1.10;;
73276;SDS011;61501;43.316;5.372;2022-09-30T10:01:35;2.33;;;1.30;;
73276;SDS011;61501;43.316;5.372;2022-09-30T10:09:20;7.10;;;1.30;;
73276;SDS011;61501;43.316;5.372;2022-09-30T10:11:47;9.63;;;1.83;;
73276;SDS011;61501;43.316;5.372;2022-09-30T10:14:21;3.88;;;1.63;;
73276;SDS011;61501;43.316;5.372;2022-09-30T10:16:47;2.58;;;1.27;;
73276;SDS011;61501;43.316;5.372;2022-09-30T10:19:20;2.83;;;0.98;;
73276;SDS011;61501;43.316;5.372;2022-09-30T10:21:47;3.25;;;1.30;;
73276;SDS011;61501;43.316;5.372;2022-09-30T10:24:26;5.93;;;1.50;;
73276;SDS011;61501;43.316;5.372;2022-09-30T10:26:53;4.00;;;1.40;;
73276;SDS011;61501;43.316;5.372;2022-09-30T10:29:32;2.72;;;1.38;;
73276;SDS011;61501;43.316;5.372;2022-09-30T10:32:00;2.58;;;1.45;;
73276;SDS011;61501;43.316;5.372;2022-09-30T10:34:37;5.10;;;1.08;;
73276;SDS011;61501;43.316;5.372;2022-09-30T10:37:15;2.85;;;1.30;;
73276;SDS011;61501;43.316;5.372;2022-09-30T10:42:31;4.18;;;1.35;;
73276;SDS011;61501;43.316;5.372;2022-09-30T10:47:34;4.82;;;1.60;;
73276;SDS011;61501;43.316;5.372;2022-09-30T10:50:10;3.83;;;1.30;;
73276;SDS011;61501;43.316;5.372;2022-09-30T10:55:43;6.25;;;2.75;;
73276;SDS011;61501;43.316;5.372;2022-09-30T11:00:58;6.60;;;2.20;;
73276;SDS011;61501;43.316;5.372;2022-09-30T11:03:38;5.45;;;2.20;;
73276;SDS011;61501;43.316;5.372;2022-09-30T11:06:26;3.88;;;2.30;;
73276;SDS011;61501;43.316;5.372;2022-09-30T11:08:57;6.60;;;1.60;;
73276;SDS011;61501;43.316;5.372;2022-09-30T11:11:49;5.82;;;2.03;;
73276;SDS011;61501;43.316;5.372;2022-09-30T11:17:05;6.82;;;1.45;;
73276;SDS011;61501;43.316;5.372;2022-09-30T11:19:50;9.35;;;1.45;;
73276;SDS011;61501;43.316;5.372;2022-09-30T11:25:04;7.25;;;1.40;;
73276;SDS011;61501;43.316;5.372;2022-09-30T11:47:09;6.50;;;1.75;;
73276;SDS011;61501;43.316;5.372;2022-09-30T11:54:11;3.97;;;1.23;;
73276;SDS011;61501;43.316;5.372;2022-09-30T11:56:47;3.38;;;1.40;;
73276;SDS011;61501;43.316;5.372;2022-09-30T11:59:22;4.28;;;1.48;;
73276;SDS011;61501;43.316;5.372;2022-09-30T12:01:49;3.90;;;1.77;;
73276;SDS011;61501;43.316;5.372;2022-09-30T12:04:30;4.85;;;1.30;;
73276;SDS011;61501;43.316;5.372;2022-09-30T12:07:16;5.10;;;1.20;;
73276;SDS011;61501;43.316;5.372;2022-09-30T12:09:47;5.07;;;1.27;;
73276;SDS011;61501;43.316;5.372;2022-09-30T12:12:15;2.65;;;1.17;;
73276;SDS011;61501;43.316;5.372;2022-09-30T12:14:43;3.22;;;0.95;;
73276;SDS011;61501;43.316;5.372;2022-09-30T12:19:58;3.45;;;0.73;;
73276;SDS011;61501;43.316;5.372;2022-09-30T12:22:29;1.38;;;0.90;;
73276;SDS011;61501;43.316;5.372;2022-09-30T12:24:57;4.15;;;1.25;;
73276;SDS011;61501;43.316;5.372;2022-09-30T12:27:34;2.47;;;1.17;;
73276;SDS011;61501;43.316;5.372;2022-09-30T12:30:04;3.78;;;1.10;;
73276;SDS011;61501;43.316;5.372;2022-09-30T12:35:22;2.85;;;1.13;;
73276;SDS011;61501;43.316;5.372;2022-09-30T12:40:41;7.47;;;1.10;;
73276;SDS011;61501;43.316;5.372;2022-09-30T12:48:14;8.00;;;1.20;;
73276;SDS011;61501;43.316;5.372;2022-09-30T12:50:52;4.60;;;1.10;;
73276;SDS011;61501;43.316;5.372;2022-09-30T12:53:23;5.82;;;1.20;;
73276;SDS011;61501;43.316;5.372;2022-09-30T12:55:50;5.10;;;1.00;;
73276;SDS011;61501;43.316;5.372;2022-09-30T12:58:21;5.40;;;1.30;;
73276;SDS011;61501;43.316;5.372;2022-09-30T13:03:42;2.22;;;0.80;;
73276;SDS011;61501;43.316;5.372;2022-09-30T13:06:09;2.40;;;0.90;;
73276;SDS011;61501;43.316;5.372;2022-09-30T13:08:36;2.20;;;0.77;;
73276;SDS011;61501;43.316;5.372;2022-09-30T13:11:18;6.78;;;1.10;;
73276;SDS011;61501;43.316;5.372;2022-09-30T13:14:46;5.20;;;1.10;;
73276;SDS011;61501;43.316;5.372;2022-09-30T13:17:20;3.45;;;1.20;;
73276;SDS011;61501;43.316;5.372;2022-09-30T13:19:46;3.17;;;0.90;;
73276;SDS011;61501;43.316;5.372;2022-09-30T13:32:44;6.03;;;0.95;;
73276;SDS011;61501;43.316;5.372;2022-09-30T13:40:41;4.57;;;1.25;;
73276;SDS011;61501;43.316;5.372;2022-09-30T13:43:14;3.10;;;0.82;;
73276;SDS011;61501;43.316;5.372;2022-09-30T13:45:41;3.97;;;0.80;;
73276;SDS011;61501;43.316;5.372;2022-09-30T13:48:12;2.70;;;1.27;;
73276;SDS011;61501;43.316;5.372;2022-09-30T13:50:41;3.22;;;0.63;;
73276;SDS011;61501;43.316;5.372;2022-09-30T13:53:18;2.67;;;0.70;;
73276;SDS011;61501;43.316;5.372;2022-09-30T13:55:47;3.65;;;1.00;;
73276;SDS011;61501;43.316;5.372;2022-09-30T14:06:12;8.55;;;1.10;;
73276;SDS011;61501;43.316;5.372;2022-09-30T14:08:43;2.70;;;1.00;;
73276;SDS011;61501;43.316;5.372;2022-09-30T14:11:19;4.38;;;1.10;;
73276;SDS011;61501;43.316;5.372;2022-09-30T14:21:35;3.60;;;1.05;;
73276;SDS011;61501;43.316;5.372;2022-09-30T14:24:21;5.38;;;0.77;;
73276;SDS011;61501;43.316;5.372;2022-09-30T14:30:10;4.25;;;1.00;;
73276;SDS011;61501;43.316;5.372;2022-09-30T14:32:28;3.25;;;0.95;;
73276;SDS011;61501;43.316;5.372;2022-09-30T14:34:55;4.78;;;1.00;;
73276;SDS011;61501;43.316;5.372;2022-09-30T14:37:26;3.42;;;1.02;;
73276;SDS011;61501;43.316;5.372;2022-09-30T14:39:53;3.97;;;1.00;;
73276;SDS011;61501;43.316;5.372;2022-09-30T14:42:38;3.13;;;0.98;;
73276;SDS011;61501;43.316;5.372;2022-09-30T14:45:05;5.72;;;1.20;;
73276;SDS011;61501;43.316;5.372;2022-09-30T14:47:37;1.88;;;1.35;;
73276;SDS011;61501;43.316;5.372;2022-09-30T14:50:08;2.42;;;0.90;;
73276;SDS011;61501;43.316;5.372;2022-09-30T14:52:36;5.45;;;1.00;;
73276;SDS011;61501;43.316;5.372;2022-09-30T14:55:03;4.55;;;0.85;;
73276;SDS011;61501;43.316;5.372;2022-09-30T14:57:29;3.60;;;0.85;;
73276;SDS011;61501;43.316;5.372;2022-09-30T15:00:20;2.15;;;0.85;;
73276;SDS011;61501;43.316;5.372;2022-09-30T15:02:45;3.85;;;0.90;;
73276;SDS011;61501;43.316;5.372;2022-09-30T15:05:12;5.28;;;1.02;;
73276;SDS011;61501;43.316;5.372;2022-09-30T15:07:39;4.85;;;1.40;;
73276;SDS011;61501;43.316;5.372;2022-09-30T15:10:05;3.42;;;1.10;;
73276;SDS011;61501;43.316;5.372;2022-09-30T15:12:34;4.80;;;0.95;;
73276;SDS011;61501;43.316;5.372;2022-09-30T15:15:00;2.75;;;1.02;;
73276;SDS011;61501;43.316;5.372;2022-09-30T15:17:29;5.30;;;1.23;;
73276;SDS011;61501;43.316;5.372;2022-09-30T15:19:56;4.00;;;0.80;;
73276;SDS011;61501;43.316;5.372;2022-09-30T15:22:23;4.15;;;1.20;;
73276;SDS011;61501;43.316;5.372;2022-09-30T15:24:50;4.32;;;1.30;;
73276;SDS011;61501;43.316;5.372;2022-09-30T15:27:22;2.83;;;1.20;;
73276;SDS011;61501;43.316;5.372;2022-09-30T15:29:56;1.95;;;0.90;;
73276;SDS011;61501;43.316;5.372;2022-09-30T15:32:24;1.92;;;1.10;;
73276;SDS011;61501;43.316;5.372;2022-09-30T15:34:51;2.13;;;0.90;;
73276;SDS011;61501;43.316;5.372;2022-09-30T15:37:19;1.35;;;0.90;;
73276;SDS011;61501;43.316;5.372;2022-09-30T15:39:46;2.97;;;1.10;;
73276;SDS011;61501;43.316;5.372;2022-09-30T15:42:32;1.15;;;0.90;;
73276;SDS011;61501;43.316;5.372;2022-09-30T15:45:01;3.78;;;0.77;;
73276;SDS011;61501;43.316;5.372;2022-09-30T15:47:28;1.42;;;1.02;;
73276;SDS011;61501;43.316;5.372;2022-09-30T15:49:55;2.30;;;0.85;;
73276;SDS011;61501;43.316;5.372;2022-09-30T15:52:28;1.30;;;0.68;;
73276;SDS011;61501;43.316;5.372;2022-09-30T15:54:56;1.55;;;0.90;;
73276;SDS011;61501;43.316;5.372;2022-09-30T16:00:09;3.47;;;0.90;;
73276;SDS011;61501;43.316;5.372;2022-09-30T16:03:03;2.28;;;0.60;;
73276;SDS011;61501;43.316;5.372;2022-09-30T16:05:31;2.58;;;0.82;;
73276;SDS011;61501;43.316;5.372;2022-09-30T16:07:57;1.23;;;0.70;;
73276;SDS011;61501;43.316;5.372;2022-09-30T16:10:23;1.08;;;0.80;;
73276;SDS011;61501;43.316;5.372;2022-09-30T16:12:51;2.38;;;0.90;;
73276;SDS011;61501;43.316;5.372;2022-09-30T16:15:17;3.30;;;0.95;;
73276;SDS011;61501;43.316;5.372;2022-09-30T16:17:47;3.08;;;0.90;;
73276;SDS011;61501;43.316;5.372;2022-09-30T16:27:35;1.65;;;0.90;;
73276;SDS011;61501;43.316;5.372;2022-09-30T16:30:02;4.18;;;1.00;;
73276;SDS011;61501;43.316;5.372;2022-09-30T16:32:29;3.10;;;0.85;;
73276;SDS011;61501;43.316;5.372;2022-09-30T16:34:56;3.35;;;0.90;;
73276;SDS011;61501;43.316;5.372;2022-09-30T16:37:22;1.90;;;0.80;;
73276;SDS011;61501;43.316;5.372;2022-09-30T16:39:48;1.52;;;0.77;;
73276;SDS011;61501;43.316;5.372;2022-09-30T16:42:15;3.47;;;1.10;;
73276;SDS011;61501;43.316;5.372;2022-09-30T16:44:42;1.17;;;0.63;;
73276;SDS011;61501;43.316;5.372;2022-09-30T16:47:16;1.63;;;1.00;;
73276;SDS011;61501;43.316;5.372;2022-09-30T16:49:45;5.18;;;1.10;;
73276;SDS011;61501;43.316;5.372;2022-09-30T16:52:11;1.83;;;1.00;;
73276;SDS011;61501;43.316;5.372;2022-09-30T16:54:38;3.78;;;1.13;;
73276;SDS011;61501;43.316;5.372;2022-09-30T16:57:04;4.53;;;1.02;;
73276;SDS011;61501;43.316;5.372;2022-09-30T16:59:30;3.30;;;1.42;;
73276;SDS011;61501;43.316;5.372;2022-09-30T17:01:57;2.38;;;1.42;;
73276;SDS011;61501;43.316;5.372;2022-09-30T17:04:24;2.65;;;0.95;;
73276;SDS011;61501;43.316;5.372;2022-09-30T17:06:50;4.18;;;2.70;;
73276;SDS011;61501;43.316;5.372;2022-09-30T17:09:17;2.17;;;1.35;;
73276;SDS011;61501;43.316;5.372;2022-09-30T17:11:43;3.75;;;2.35;;
73276;SDS011;61501;43.316;5.372;2022-09-30T17:14:09;3.55;;;2.33;;
73276;SDS011;61501;43.316;5.372;2022-09-30T17:16:35;4.60;;;1.70;;
73276;SDS011;61501;43.316;5.372;2022-09-30T17:19:01;4.55;;;1.77;;
73276;SDS011;61501;43.316;5.372;2022-09-30T17:21:26;3.45;;;1.40;;
73276;SDS011;61501;43.316;5.372;2022-09-30T17:23:55;3.28;;;1.33;;
73276;SDS011;61501;43.316;5.372;2022-09-30T17:26:22;4.95;;;1.95;;
73276;SDS011;61501;43.316;5.372;2022-09-30T17:28:47;1.95;;;1.20;;
73276;SDS011;61501;43.316;5.372;2022-09-30T17:31:13;2.90;;;1.13;;
73276;SDS011;61501;43.316;5.372;2022-09-30T17:33:39;4.47;;;1.52;;
73276;SDS011;61501;43.316;5.372;2022-09-30T17:36:09;1.67;;;1.27;;
73276;SDS011;61501;43.316;5.372;2022-09-30T17:38:36;4.63;;;1.27;;
73276;SDS011;61501;43.316;5.372;2022-09-30T17:41:03;1.70;;;1.08;;
73276;SDS011;61501;43.316;5.372;2022-09-30T17:44:08;2.35;;;1.25;;
73276;SDS011;61501;43.316;5.372;2022-09-30T17:46:42;4.68;;;1.10;;
73276;SDS011;61501;43.316;5.372;2022-09-30T17:49:09;2.47;;;1.13;;
73276;SDS011;61501;43.316;5.372;2022-09-30T17:51:36;3.60;;;1.50;;
73276;SDS011;61501;43.316;5.372;2022-09-30T17:54:03;2.17;;;1.48;;
73276;SDS011;61501;43.316;5.372;2022-09-30T17:56:30;2.78;;;1.70;;
73276;SDS011;61501;43.316;5.372;2022-09-30T17:58:56;4.53;;;2.35;;
73276;SDS011;61501;43.316;5.372;2022-09-30T18:01:22;2.67;;;1.77;;
73276;SDS011;61501;43.316;5.372;2022-09-30T18:03:48;1.83;;;1.20;;
73276;SDS011;61501;43.316;5.372;2022-09-30T18:06:17;2.33;;;1.35;;
73276;SDS011;61501;43.316;5.372;2022-09-30T18:08:47;3.95;;;1.42;;
73276;SDS011;61501;43.316;5.372;2022-09-30T18:11:20;2.00;;;1.10;;
73276;SDS011;61501;43.316;5.372;2022-09-30T18:13:50;2.15;;;1.17;;
73276;SDS011;61501;43.316;5.372;2022-09-30T18:16:19;3.10;;;1.00;;
73276;SDS011;61501;43.316;5.372;2022-09-30T18:18:45;3.85;;;1.10;;
73276;SDS011;61501;43.316;5.372;2022-09-30T18:21:11;2.20;;;1.17;;
73276;SDS011;61501;43.316;5.372;2022-09-30T18:23:37;3.67;;;1.70;;
73276;SDS011;61501;43.316;5.372;2022-09-30T18:26:02;2.78;;;1.27;;